Terminal Aerodrome Forecast
Issued by NWS

Home | Current Version | Previous Version | Text Only | Print | Product List | Glossary On
Versions: 1 2 3 4 5 6 7 8 9 10 11 12 13 14 15 16 17 18 19 20 21 22 23 24 25 26 27 28 29 30
000
FTUS45 KGJT 042005 AAA
TAFEGE
TAF AMD
KEGE 042005Z 0420/0518 VRB03KT P6SM VCSH SCT090
      TEMPO 0420/0422 -TSRA BKN070CB
     FM042200 24008KT P6SM VCTS BKN090CB
     FM050200 07005KT P6SM VCSH BKN080
     FM050900 11004KT P6SM VCSH OVC100=

USA.gov is the U.S. government's official web portal to all federal, state and local government web resources and services.